sensor_id;sensor_type;location;lat;lon;timestamp;temperature;humidity
19348;DHT22;9810;52.480;9.806;2024-02-21T00:02:25;8.90;99.90
19348;DHT22;9810;52.480;9.806;2024-02-21T00:04:54;8.90;99.90
19348;DHT22;9810;52.480;9.806;2024-02-21T00:07:21;8.90;99.90
19348;DHT22;9810;52.480;9.806;2024-02-21T00:09:48;8.90;99.90
19348;DHT22;9810;52.480;9.806;2024-02-21T00:12:15;8.90;99.90
19348;DHT22;9810;52.480;9.806;2024-02-21T00:14:41;9.00;99.90
19348;DHT22;9810;52.480;9.806;2024-02-21T00:17:09;9.00;99.90
19348;DHT22;9810;52.480;9.806;2024-02-21T00:19:36;8.90;99.90
19348;DHT22;9810;52.480;9.806;2024-02-21T00:22:04;8.80;99.90
19348;DHT22;9810;52.480;9.806;2024-02-21T00:24:31;9.00;99.90
19348;DHT22;9810;52.480;9.806;2024-02-21T00:26:58;8.90;99.90
19348;DHT22;9810;52.480;9.806;2024-02-21T00:29:25;9.00;99.90
19348;DHT22;9810;52.480;9.806;2024-02-21T00:31:53;8.80;99.90
19348;DHT22;9810;52.480;9.806;2024-02-21T00:34:19;9.00;99.90
19348;DHT22;9810;52.480;9.806;2024-02-21T00:36:46;8.90;99.90
19348;DHT22;9810;52.480;9.806;2024-02-21T00:39:15;9.00;99.90
19348;DHT22;9810;52.480;9.806;2024-02-21T00:41:42;8.90;99.90
19348;DHT22;9810;52.480;9.806;2024-02-21T00:44:09;9.10;99.90
19348;DHT22;9810;52.480;9.806;2024-02-21T00:46:36;9.10;99.90
19348;DHT22;9810;52.480;9.806;2024-02-21T00:49:04;9.00;99.90
19348;DHT22;9810;52.480;9.806;2024-02-21T00:51:31;9.00;99.90
19348;DHT22;9810;52.480;9.806;2024-02-21T00:53:58;9.10;99.90
19348;DHT22;9810;52.480;9.806;2024-02-21T00:56:26;9.10;99.90
19348;DHT22;9810;52.480;9.806;2024-02-21T00:58:53;8.90;99.90
19348;DHT22;9810;52.480;9.806;2024-02-21T01:01:24;9.10;99.90
19348;DHT22;9810;52.480;9.806;2024-02-21T01:03:51;9.00;99.90
19348;DHT22;9810;52.480;9.806;2024-02-21T01:06:19;9.00;99.90
19348;DHT22;9810;52.480;9.806;2024-02-21T01:08:46;9.00;99.90
19348;DHT22;9810;52.480;9.806;2024-02-21T01:11:13;8.90;99.90
19348;DHT22;9810;52.480;9.806;2024-02-21T01:13:42;9.00;99.90
19348;DHT22;9810;52.480;9.806;2024-02-21T01:16:09;8.90;99.90
19348;DHT22;9810;52.480;9.806;2024-02-21T01:18:37;8.90;99.90
19348;DHT22;9810;52.480;9.806;2024-02-21T01:21:04;9.00;99.90
19348;DHT22;9810;52.480;9.806;2024-02-21T01:23:32;9.00;99.90
19348;DHT22;9810;52.480;9.806;2024-02-21T01:25:59;8.90;99.90
19348;DHT22;9810;52.480;9.806;2024-02-21T01:28:26;9.00;99.90
19348;DHT22;9810;52.480;9.806;2024-02-21T01:30:55;9.00;99.90
19348;DHT22;9810;52.480;9.806;2024-02-21T01:33:22;9.10;99.90
19348;DHT22;9810;52.480;9.806;2024-02-21T01:35:49;9.10;99.90
19348;DHT22;9810;52.480;9.806;2024-02-21T01:38:16;9.10;99.90
19348;DHT22;9810;52.480;9.806;2024-02-21T01:40:43;9.10;99.90
19348;DHT22;9810;52.480;9.806;2024-02-21T01:43:16;9.10;99.90
19348;DHT22;9810;52.480;9.806;2024-02-21T01:45:49;9.30;99.90
19348;DHT22;9810;52.480;9.806;2024-02-21T01:48:18;9.30;99.90
19348;DHT22;9810;52.480;9.806;2024-02-21T01:50:46;9.30;99.90
19348;DHT22;9810;52.480;9.806;2024-02-21T01:53:14;9.20;99.90
19348;DHT22;9810;52.480;9.806;2024-02-21T01:55:44;9.30;99.90
19348;DHT22;9810;52.480;9.806;2024-02-21T01:58:12;9.20;99.90
19348;DHT22;9810;52.480;9.806;2024-02-21T02:00:41;9.30;99.90
19348;DHT22;9810;52.480;9.806;2024-02-21T02:03:10;9.20;99.90
19348;DHT22;9810;52.480;9.806;2024-02-21T02:05:44;9.20;99.90
19348;DHT22;9810;52.480;9.806;2024-02-21T02:08:11;9.20;99.90
19348;DHT22;9810;52.480;9.806;2024-02-21T02:10:40;9.20;99.90
19348;DHT22;9810;52.480;9.806;2024-02-21T02:13:07;9.10;99.90
19348;DHT22;9810;52.480;9.806;2024-02-21T02:15:38;9.00;99.90
19348;DHT22;9810;52.480;9.806;2024-02-21T02:18:06;9.20;99.90
19348;DHT22;9810;52.480;9.806;2024-02-21T02:20:32;9.10;99.90
19348;DHT22;9810;52.480;9.806;2024-02-21T02:23:07;9.10;99.90
19348;DHT22;9810;52.480;9.806;2024-02-21T02:25:36;9.10;99.90
19348;DHT22;9810;52.480;9.806;2024-02-21T02:28:04;9.10;99.90
19348;DHT22;9810;52.480;9.806;2024-02-21T02:30:32;9.20;99.90
19348;DHT22;9810;52.480;9.806;2024-02-21T02:33:00;9.10;99.90
19348;DHT22;9810;52.480;9.806;2024-02-21T02:35:27;9.20;99.90
19348;DHT22;9810;52.480;9.806;2024-02-21T02:37:54;9.20;99.90
19348;DHT22;9810;52.480;9.806;2024-02-21T02:40:21;9.20;99.90
19348;DHT22;9810;52.480;9.806;2024-02-21T02:42:49;9.20;99.90
19348;DHT22;9810;52.480;9.806;2024-02-21T02:45:17;9.30;99.90
19348;DHT22;9810;52.480;9.806;2024-02-21T02:47:44;9.30;99.90
19348;DHT22;9810;52.480;9.806;2024-02-21T02:50:12;9.20;99.90
19348;DHT22;9810;52.480;9.806;2024-02-21T02:52:39;9.20;99.90
19348;DHT22;9810;52.480;9.806;2024-02-21T02:55:07;9.30;99.90
19348;DHT22;9810;52.480;9.806;2024-02-21T02:57:34;9.20;99.90
19348;DHT22;9810;52.480;9.806;2024-02-21T03:00:03;9.20;99.90
19348;DHT22;9810;52.480;9.806;2024-02-21T03:02:32;9.30;99.90
19348;DHT22;9810;52.480;9.806;2024-02-21T03:04:59;9.30;99.90
19348;DHT22;9810;52.480;9.806;2024-02-21T03:07:26;9.30;99.90
19348;DHT22;9810;52.480;9.806;2024-02-21T03:09:53;9.30;99.90
19348;DHT22;9810;52.480;9.806;2024-02-21T03:12:20;9.20;99.90
19348;DHT22;9810;52.480;9.806;2024-02-21T03:14:53;9.40;99.90
19348;DHT22;9810;52.480;9.806;2024-02-21T03:17:21;9.30;99.90
19348;DHT22;9810;52.480;9.806;2024-02-21T03:19:48;9.30;99.90
19348;DHT22;9810;52.480;9.806;2024-02-21T03:22:15;9.30;99.90
19348;DHT22;9810;52.480;9.806;2024-02-21T03:24:42;9.30;99.90
19348;DHT22;9810;52.480;9.806;2024-02-21T03:27:09;9.30;99.90
19348;DHT22;9810;52.480;9.806;2024-02-21T03:29:36;9.30;99.90
19348;DHT22;9810;52.480;9.806;2024-02-21T03:32:03;9.40;99.90
19348;DHT22;9810;52.480;9.806;2024-02-21T03:34:32;9.40;99.90
19348;DHT22;9810;52.480;9.806;2024-02-21T03:36:59;9.40;99.90
19348;DHT22;9810;52.480;9.806;2024-02-21T03:39:26;9.40;99.90
19348;DHT22;9810;52.480;9.806;2024-02-21T03:41:53;9.40;99.90
19348;DHT22;9810;52.480;9.806;2024-02-21T03:44:20;9.30;99.90
19348;DHT22;9810;52.480;9.806;2024-02-21T03:46:47;9.30;99.90
19348;DHT22;9810;52.480;9.806;2024-02-21T03:49:14;9.30;99.90
19348;DHT22;9810;52.480;9.806;2024-02-21T03:51:42;9.40;99.90
19348;DHT22;9810;52.480;9.806;2024-02-21T03:54:09;9.30;99.90
19348;DHT22;9810;52.480;9.806;2024-02-21T03:56:37;9.30;99.90
19348;DHT22;9810;52.480;9.806;2024-02-21T03:59:05;9.40;99.90
19348;DHT22;9810;52.480;9.806;2024-02-21T04:01:33;9.30;99.90
19348;DHT22;9810;52.480;9.806;2024-02-21T04:04:00;9.30;99.90
19348;DHT22;9810;52.480;9.806;2024-02-21T04:06:27;9.30;99.90
19348;DHT22;9810;52.480;9.806;2024-02-21T04:08:56;9.30;99.90
19348;DHT22;9810;52.480;9.806;2024-02-21T04:11:23;9.30;99.90
19348;DHT22;9810;52.480;9.806;2024-02-21T04:13:50;9.30;99.90
19348;DHT22;9810;52.480;9.806;2024-02-21T04:16:18;9.20;99.90
19348;DHT22;9810;52.480;9.806;2024-02-21T04:18:45;9.30;99.90
19348;DHT22;9810;52.480;9.806;2024-02-21T04:21:14;9.30;99.90
19348;DHT22;9810;52.480;9.806;2024-02-21T04:23:41;9.20;99.90
19348;DHT22;9810;52.480;9.806;2024-02-21T04:26:10;9.30;99.90
19348;DHT22;9810;52.480;9.806;2024-02-21T04:28:37;9.30;99.90
19348;DHT22;9810;52.480;9.806;2024-02-21T04:31:04;9.30;99.90
19348;DHT22;9810;52.480;9.806;2024-02-21T04:33:32;9.20;99.90
19348;DHT22;9810;52.480;9.806;2024-02-21T04:35:59;9.20;99.90
19348;DHT22;9810;52.480;9.806;2024-02-21T04:38:27;9.30;99.90
19348;DHT22;9810;52.480;9.806;2024-02-21T04:40:54;9.10;99.90
19348;DHT22;9810;52.480;9.806;2024-02-21T04:43:25;9.20;99.90
19348;DHT22;9810;52.480;9.806;2024-02-21T04:45:52;9.30;99.90
19348;DHT22;9810;52.480;9.806;2024-02-21T04:48:19;9.30;99.90
19348;DHT22;9810;52.480;9.806;2024-02-21T04:50:46;9.20;99.90
19348;DHT22;9810;52.480;9.806;2024-02-21T04:53:13;9.30;99.90
19348;DHT22;9810;52.480;9.806;2024-02-21T04:55:41;9.20;99.90
19348;DHT22;9810;52.480;9.806;2024-02-21T04:58:08;9.40;99.90
19348;DHT22;9810;52.480;9.806;2024-02-21T05:00:37;9.30;99.90
19348;DHT22;9810;52.480;9.806;2024-02-21T05:03:04;9.30;99.90
19348;DHT22;9810;52.480;9.806;2024-02-21T05:05:31;9.30;99.90
19348;DHT22;9810;52.480;9.806;2024-02-21T05:07:58;9.30;99.90
19348;DHT22;9810;52.480;9.806;2024-02-21T05:10:25;9.30;99.90
19348;DHT22;9810;52.480;9.806;2024-02-21T05:12:52;9.40;99.90
19348;DHT22;9810;52.480;9.806;2024-02-21T05:15:19;9.30;99.90
19348;DHT22;9810;52.480;9.806;2024-02-21T05:17:48;9.40;99.90
19348;DHT22;9810;52.480;9.806;2024-02-21T05:20:15;9.20;99.90
19348;DHT22;9810;52.480;9.806;2024-02-21T05:22:42;9.10;99.90
19348;DHT22;9810;52.480;9.806;2024-02-21T05:25:09;9.10;99.90
19348;DHT22;9810;52.480;9.806;2024-02-21T05:27:36;9.20;99.90
19348;DHT22;9810;52.480;9.806;2024-02-21T05:30:05;9.20;99.90
19348;DHT22;9810;52.480;9.806;2024-02-21T05:32:33;9.20;99.90
19348;DHT22;9810;52.480;9.806;2024-02-21T05:35:02;9.30;99.90
19348;DHT22;9810;52.480;9.806;2024-02-21T05:37:29;9.20;99.90
19348;DHT22;9810;52.480;9.806;2024-02-21T05:39:55;9.00;99.90
19348;DHT22;9810;52.480;9.806;2024-02-21T05:42:22;9.00;99.90
19348;DHT22;9810;52.480;9.806;2024-02-21T05:44:49;9.00;99.90
19348;DHT22;9810;52.480;9.806;2024-02-21T05:47:16;9.00;99.90
19348;DHT22;9810;52.480;9.806;2024-02-21T05:49:46;9.00;99.90
19348;DHT22;9810;52.480;9.806;2024-02-21T05:52:14;8.90;99.90
19348;DHT22;9810;52.480;9.806;2024-02-21T05:54:42;8.90;99.90
19348;DHT22;9810;52.480;9.806;2024-02-21T05:57:08;8.80;99.90
19348;DHT22;9810;52.480;9.806;2024-02-21T05:59:37;8.70;99.90
19348;DHT22;9810;52.480;9.806;2024-02-21T06:02:05;8.70;99.90
19348;DHT22;9810;52.480;9.806;2024-02-21T06:04:32;8.80;99.90
19348;DHT22;9810;52.480;9.806;2024-02-21T06:06:59;8.60;99.90
19348;DHT22;9810;52.480;9.806;2024-02-21T06:09:28;8.60;99.90
19348;DHT22;9810;52.480;9.806;2024-02-21T06:11:55;8.50;99.90
19348;DHT22;9810;52.480;9.806;2024-02-21T06:14:22;8.50;99.90
19348;DHT22;9810;52.480;9.806;2024-02-21T06:16:49;8.50;99.90
19348;DHT22;9810;52.480;9.806;2024-02-21T06:19:16;8.60;99.90
19348;DHT22;9810;52.480;9.806;2024-02-21T06:21:43;8.50;99.90
19348;DHT22;9810;52.480;9.806;2024-02-21T06:24:10;8.60;99.90
19348;DHT22;9810;52.480;9.806;2024-02-21T06:26:40;8.70;99.90
19348;DHT22;9810;52.480;9.806;2024-02-21T06:29:07;8.60;99.90
19348;DHT22;9810;52.480;9.806;2024-02-21T06:31:35;8.70;99.90
19348;DHT22;9810;52.480;9.806;2024-02-21T06:34:02;8.70;99.90
19348;DHT22;9810;52.480;9.806;2024-02-21T06:36:30;8.70;99.90
19348;DHT22;9810;52.480;9.806;2024-02-21T06:38:57;8.80;99.90
19348;DHT22;9810;52.480;9.806;2024-02-21T06:41:23;8.80;99.90
19348;DHT22;9810;52.480;9.806;2024-02-21T06:43:52;8.80;99.90
19348;DHT22;9810;52.480;9.806;2024-02-21T06:46:23;8.80;99.90
19348;DHT22;9810;52.480;9.806;2024-02-21T06:48:51;8.70;99.90
19348;DHT22;9810;52.480;9.806;2024-02-21T06:51:18;8.80;99.90
19348;DHT22;9810;52.480;9.806;2024-02-21T06:53:45;8.80;99.90
19348;DHT22;9810;52.480;9.806;2024-02-21T06:56:12;8.90;99.90
19348;DHT22;9810;52.480;9.806;2024-02-21T06:58:39;8.90;99.90
19348;DHT22;9810;52.480;9.806;2024-02-21T07:01:08;8.90;99.90
19348;DHT22;9810;52.480;9.806;2024-02-21T07:03:35;8.90;99.90
19348;DHT22;9810;52.480;9.806;2024-02-21T07:06:02;8.80;99.90
19348;DHT22;9810;52.480;9.806;2024-02-21T07:08:29;8.70;99.90
19348;DHT22;9810;52.480;9.806;2024-02-21T07:10:56;8.90;99.90
19348;DHT22;9810;52.480;9.806;2024-02-21T07:13:23;8.90;99.90
19348;DHT22;9810;52.480;9.806;2024-02-21T07:15:50;8.80;99.90
19348;DHT22;9810;52.480;9.806;2024-02-21T07:18:19;8.90;99.90
19348;DHT22;9810;52.480;9.806;2024-02-21T07:20:46;8.90;99.90
19348;DHT22;9810;52.480;9.806;2024-02-21T07:23:13;8.90;99.90
19348;DHT22;9810;52.480;9.806;2024-02-21T07:25:40;9.10;99.90
19348;DHT22;9810;52.480;9.806;2024-02-21T07:28:07;9.00;99.90
19348;DHT22;9810;52.480;9.806;2024-02-21T07:30:34;8.90;99.90
19348;DHT22;9810;52.480;9.806;2024-02-21T07:33:02;9.00;99.90
19348;DHT22;9810;52.480;9.806;2024-02-21T07:35:31;9.00;99.90
19348;DHT22;9810;52.480;9.806;2024-02-21T07:37:57;8.90;99.90
19348;DHT22;9810;52.480;9.806;2024-02-21T07:40:25;9.00;99.90
19348;DHT22;9810;52.480;9.806;2024-02-21T07:42:51;9.00;99.90
19348;DHT22;9810;52.480;9.806;2024-02-21T07:45:18;8.90;99.90
19348;DHT22;9810;52.480;9.806;2024-02-21T07:47:49;9.00;99.90
19348;DHT22;9810;52.480;9.806;2024-02-21T07:50:16;8.90;99.90
19348;DHT22;9810;52.480;9.806;2024-02-21T07:52:45;8.90;99.90
19348;DHT22;9810;52.480;9.806;2024-02-21T07:55:12;8.90;99.90
19348;DHT22;9810;52.480;9.806;2024-02-21T07:57:39;8.90;99.90
19348;DHT22;9810;52.480;9.806;2024-02-21T08:00:07;8.80;99.90
19348;DHT22;9810;52.480;9.806;2024-02-21T08:02:35;8.90;99.90
19348;DHT22;9810;52.480;9.806;2024-02-21T08:05:03;9.00;99.90
19348;DHT22;9810;52.480;9.806;2024-02-21T08:07:30;8.90;99.90
19348;DHT22;9810;52.480;9.806;2024-02-21T08:09:59;8.90;99.90
19348;DHT22;9810;52.480;9.806;2024-02-21T08:12:26;8.90;99.90
19348;DHT22;9810;52.480;9.806;2024-02-21T08:14:53;9.00;99.90
19348;DHT22;9810;52.480;9.806;2024-02-21T08:17:20;9.10;99.90
19348;DHT22;9810;52.480;9.806;2024-02-21T08:19:47;9.10;99.90
19348;DHT22;9810;52.480;9.806;2024-02-21T08:22:15;9.10;99.90
19348;DHT22;9810;52.480;9.806;2024-02-21T08:24:41;9.20;99.90
19348;DHT22;9810;52.480;9.806;2024-02-21T08:27:10;9.00;99.90
19348;DHT22;9810;52.480;9.806;2024-02-21T08:29:37;9.00;99.90
19348;DHT22;9810;52.480;9.806;2024-02-21T08:32:04;9.00;99.90
19348;DHT22;9810;52.480;9.806;2024-02-21T08:34:31;9.10;99.90
19348;DHT22;9810;52.480;9.806;2024-02-21T08:36:59;9.10;99.90
19348;DHT22;9810;52.480;9.806;2024-02-21T08:39:27;9.10;99.90
19348;DHT22;9810;52.480;9.806;2024-02-21T08:41:55;9.30;99.90
19348;DHT22;9810;52.480;9.806;2024-02-21T08:44:24;9.20;99.90
19348;DHT22;9810;52.480;9.806;2024-02-21T08:46:52;9.20;99.90
19348;DHT22;9810;52.480;9.806;2024-02-21T08:49:19;9.30;99.90
19348;DHT22;9810;52.480;9.806;2024-02-21T08:51:46;9.30;99.90
19348;DHT22;9810;52.480;9.806;2024-02-21T08:54:13;9.40;99.90
19348;DHT22;9810;52.480;9.806;2024-02-21T08:56:40;9.60;99.90
19348;DHT22;9810;52.480;9.806;2024-02-21T08:59:07;9.50;99.90
19348;DHT22;9810;52.480;9.806;2024-02-21T09:01:35;9.60;99.90
19348;DHT22;9810;52.480;9.806;2024-02-21T09:04:03;9.70;99.90
19348;DHT22;9810;52.480;9.806;2024-02-21T09:06:30;9.80;99.90
19348;DHT22;9810;52.480;9.806;2024-02-21T09:08:59;9.90;99.90
19348;DHT22;9810;52.480;9.806;2024-02-21T09:11:25;10.00;99.90
19348;DHT22;9810;52.480;9.806;2024-02-21T09:13:53;10.00;99.90
19348;DHT22;9810;52.480;9.806;2024-02-21T09:16:20;9.80;99.90
19348;DHT22;9810;52.480;9.806;2024-02-21T09:18:49;9.90;99.90
19348;DHT22;9810;52.480;9.806;2024-02-21T09:21:16;9.90;99.90
19348;DHT22;9810;52.480;9.806;2024-02-21T09:23:43;9.90;99.90
19348;DHT22;9810;52.480;9.806;2024-02-21T09:26:10;10.00;99.90
19348;DHT22;9810;52.480;9.806;2024-02-21T09:28:39;10.00;99.90
19348;DHT22;9810;52.480;9.806;2024-02-21T09:31:06;10.20;99.90
19348;DHT22;9810;52.480;9.806;2024-02-21T09:33:33;10.20;99.90
19348;DHT22;9810;52.480;9.806;2024-02-21T09:36:02;10.20;99.90
19348;DHT22;9810;52.480;9.806;2024-02-21T09:38:31;10.20;99.90
19348;DHT22;9810;52.480;9.806;2024-02-21T09:40:59;10.60;99.90
19348;DHT22;9810;52.480;9.806;2024-02-21T09:43:27;11.10;99.90
19348;DHT22;9810;52.480;9.806;2024-02-21T09:45:55;11.20;99.90
19348;DHT22;9810;52.480;9.806;2024-02-21T09:48:35;11.30;99.90
19348;DHT22;9810;52.480;9.806;2024-02-21T09:51:07;11.10;99.90
19348;DHT22;9810;52.480;9.806;2024-02-21T09:53:37;10.90;99.90
19348;DHT22;9810;52.480;9.806;2024-02-21T09:56:07;10.80;99.90
19348;DHT22;9810;52.480;9.806;2024-02-21T09:58:34;10.80;99.90
19348;DHT22;9810;52.480;9.806;2024-02-21T10:01:01;10.90;99.90
19348;DHT22;9810;52.480;9.806;2024-02-21T10:03:32;10.90;99.90
19348;DHT22;9810;52.480;9.806;2024-02-21T10:06:00;10.90;99.90
19348;DHT22;9810;52.480;9.806;2024-02-21T10:08:29;11.00;99.90
19348;DHT22;9810;52.480;9.806;2024-02-21T10:10:56;10.80;99.90
19348;DHT22;9810;52.480;9.806;2024-02-21T10:13:26;10.70;99.90
19348;DHT22;9810;52.480;9.806;2024-02-21T10:16:04;10.70;99.90
19348;DHT22;9810;52.480;9.806;2024-02-21T10:18:31;10.70;99.90
19348;DHT22;9810;52.480;9.806;2024-02-21T10:21:02;10.70;99.90
19348;DHT22;9810;52.480;9.806;2024-02-21T10:23:45;10.80;99.90
19348;DHT22;9810;52.480;9.806;2024-02-21T10:26:12;10.80;99.90
19348;DHT22;9810;52.480;9.806;2024-02-21T10:28:39;10.90;99.90
19348;DHT22;9810;52.480;9.806;2024-02-21T10:31:09;10.90;99.90
19348;DHT22;9810;52.480;9.806;2024-02-21T10:33:37;10.80;99.90
19348;DHT22;9810;52.480;9.806;2024-02-21T10:36:08;10.60;99.90
19348;DHT22;9810;52.480;9.806;2024-02-21T10:38:36;10.70;99.90
19348;DHT22;9810;52.480;9.806;2024-02-21T10:41:06;10.70;99.90
19348;DHT22;9810;52.480;9.806;2024-02-21T10:43:38;10.70;99.90
19348;DHT22;9810;52.480;9.806;2024-02-21T10:46:07;10.70;99.90
19348;DHT22;9810;52.480;9.806;2024-02-21T10:48:42;10.80;99.90
19348;DHT22;9810;52.480;9.806;2024-02-21T10:51:15;11.10;99.90
19348;DHT22;9810;52.480;9.806;2024-02-21T10:53:45;11.00;99.90
19348;DHT22;9810;52.480;9.806;2024-02-21T10:56:28;10.90;99.90
19348;DHT22;9810;52.480;9.806;2024-02-21T10:58:58;10.90;99.90
19348;DHT22;9810;52.480;9.806;2024-02-21T11:01:26;10.80;99.90
19348;DHT22;9810;52.480;9.806;2024-02-21T11:03:56;10.90;99.90
19348;DHT22;9810;52.480;9.806;2024-02-21T11:06:25;11.00;99.90
19348;DHT22;9810;52.480;9.806;2024-02-21T11:09:03;11.00;99.90
19348;DHT22;9810;52.480;9.806;2024-02-21T11:11:33;11.10;99.90
19348;DHT22;9810;52.480;9.806;2024-02-21T11:14:07;12.10;99.90
19348;DHT22;9810;52.480;9.806;2024-02-21T11:16:38;11.80;99.90
19348;DHT22;9810;52.480;9.806;2024-02-21T11:19:08;11.10;99.90
19348;DHT22;9810;52.480;9.806;2024-02-21T11:21:37;11.20;99.90
19348;DHT22;9810;52.480;9.806;2024-02-21T11:24:04;10.90;99.90
19348;DHT22;9810;52.480;9.806;2024-02-21T11:26:33;11.10;99.90
19348;DHT22;9810;52.480;9.806;2024-02-21T11:29:01;11.30;99.90
19348;DHT22;9810;52.480;9.806;2024-02-21T11:31:38;11.20;99.90
19348;DHT22;9810;52.480;9.806;2024-02-21T11:34:08;11.30;99.90
19348;DHT22;9810;52.480;9.806;2024-02-21T11:36:35;11.40;99.90
19348;DHT22;9810;52.480;9.806;2024-02-21T11:39:05;11.20;99.90
19348;DHT22;9810;52.480;9.806;2024-02-21T11:41:34;11.10;99.90
19348;DHT22;9810;52.480;9.806;2024-02-21T11:44:01;11.10;99.90
19348;DHT22;9810;52.480;9.806;2024-02-21T11:46:29;11.10;99.90
19348;DHT22;9810;52.480;9.806;2024-02-21T11:48:56;11.10;99.90
19348;DHT22;9810;52.480;9.806;2024-02-21T11:51:26;11.10;99.90
19348;DHT22;9810;52.480;9.806;2024-02-21T11:53:53;11.00;99.90
19348;DHT22;9810;52.480;9.806;2024-02-21T11:56:20;11.00;99.90
19348;DHT22;9810;52.480;9.806;2024-02-21T11:58:50;11.00;99.90
19348;DHT22;9810;52.480;9.806;2024-02-21T12:01:17;11.10;99.90
19348;DHT22;9810;52.480;9.806;2024-02-21T12:03:44;11.20;99.90
19348;DHT22;9810;52.480;9.806;2024-02-21T12:06:16;11.10;99.90
19348;DHT22;9810;52.480;9.806;2024-02-21T12:08:47;11.10;99.90
19348;DHT22;9810;52.480;9.806;2024-02-21T12:11:20;11.20;99.90
19348;DHT22;9810;52.480;9.806;2024-02-21T12:13:58;11.20;99.90
19348;DHT22;9810;52.480;9.806;2024-02-21T12:16:27;11.30;99.90
19348;DHT22;9810;52.480;9.806;2024-02-21T12:18:55;11.20;99.90
19348;DHT22;9810;52.480;9.806;2024-02-21T12:21:24;11.30;99.90
19348;DHT22;9810;52.480;9.806;2024-02-21T12:23:51;11.30;99.90
19348;DHT22;9810;52.480;9.806;2024-02-21T12:26:18;11.30;99.90
19348;DHT22;9810;52.480;9.806;2024-02-21T12:28:45;11.30;99.90
19348;DHT22;9810;52.480;9.806;2024-02-21T12:31:14;11.30;99.90
19348;DHT22;9810;52.480;9.806;2024-02-21T12:33:41;11.30;99.90
19348;DHT22;9810;52.480;9.806;2024-02-21T12:36:08;11.40;99.90
19348;DHT22;9810;52.480;9.806;2024-02-21T12:38:36;11.30;99.90
19348;DHT22;9810;52.480;9.806;2024-02-21T12:41:03;11.50;99.90
19348;DHT22;9810;52.480;9.806;2024-02-21T12:43:30;11.50;99.90
19348;DHT22;9810;52.480;9.806;2024-02-21T12:45:57;11.50;99.90
19348;DHT22;9810;52.480;9.806;2024-02-21T12:48:25;11.60;99.90
19348;DHT22;9810;52.480;9.806;2024-02-21T12:50:52;11.50;99.90
19348;DHT22;9810;52.480;9.806;2024-02-21T12:53:19;11.80;99.90
19348;DHT22;9810;52.480;9.806;2024-02-21T12:55:48;11.80;99.90
19348;DHT22;9810;52.480;9.806;2024-02-21T12:58:16;11.90;99.90
19348;DHT22;9810;52.480;9.806;2024-02-21T13:00:43;11.90;99.90
19348;DHT22;9810;52.480;9.806;2024-02-21T13:03:10;11.40;99.90
19348;DHT22;9810;52.480;9.806;2024-02-21T13:05:39;11.60;99.90
19348;DHT22;9810;52.480;9.806;2024-02-21T13:08:06;11.60;99.90
19348;DHT22;9810;52.480;9.806;2024-02-21T13:10:33;11.50;99.90
19348;DHT22;9810;52.480;9.806;2024-02-21T13:13:00;11.60;99.90
19348;DHT22;9810;52.480;9.806;2024-02-21T13:15:33;11.70;99.90
19348;DHT22;9810;52.480;9.806;2024-02-21T13:18:03;11.60;99.90
19348;DHT22;9810;52.480;9.806;2024-02-21T13:20:30;11.50;99.90
19348;DHT22;9810;52.480;9.806;2024-02-21T13:22:59;11.50;99.90
19348;DHT22;9810;52.480;9.806;2024-02-21T13:25:26;11.40;99.90
19348;DHT22;9810;52.480;9.806;2024-02-21T13:27:52;11.40;99.90
19348;DHT22;9810;52.480;9.806;2024-02-21T13:30:19;11.50;99.90
19348;DHT22;9810;52.480;9.806;2024-02-21T13:32:46;11.50;99.90
19348;DHT22;9810;52.480;9.806;2024-02-21T13:35:14;11.50;99.90
19348;DHT22;9810;52.480;9.806;2024-02-21T13:37:41;11.60;99.90
19348;DHT22;9810;52.480;9.806;2024-02-21T13:40:10;11.60;99.90
19348;DHT22;9810;52.480;9.806;2024-02-21T13:42:39;11.50;99.90
19348;DHT22;9810;52.480;9.806;2024-02-21T13:45:07;11.40;99.90
19348;DHT22;9810;52.480;9.806;2024-02-21T13:47:34;11.40;99.90
19348;DHT22;9810;52.480;9.806;2024-02-21T13:50:02;11.40;99.90
19348;DHT22;9810;52.480;9.806;2024-02-21T13:52:30;11.30;99.90
19348;DHT22;9810;52.480;9.806;2024-02-21T13:54:56;11.50;99.90
19348;DHT22;9810;52.480;9.806;2024-02-21T13:57:26;11.40;99.90
19348;DHT22;9810;52.480;9.806;2024-02-21T13:59:53;11.50;99.90
19348;DHT22;9810;52.480;9.806;2024-02-21T14:02:19;11.40;99.90
19348;DHT22;9810;52.480;9.806;2024-02-21T14:04:47;11.30;99.90
19348;DHT22;9810;52.480;9.806;2024-02-21T14:07:14;11.30;99.90
19348;DHT22;9810;52.480;9.806;2024-02-21T14:09:41;11.30;99.90
19348;DHT22;9810;52.480;9.806;2024-02-21T14:12:08;11.30;99.90
19348;DHT22;9810;52.480;9.806;2024-02-21T14:14:37;11.20;99.90
19348;DHT22;9810;52.480;9.806;2024-02-21T14:17:04;11.20;99.90
19348;DHT22;9810;52.480;9.806;2024-02-21T14:19:31;11.30;99.90
19348;DHT22;9810;52.480;9.806;2024-02-21T14:21:58;11.20;99.90
19348;DHT22;9810;52.480;9.806;2024-02-21T14:24:25;11.20;99.90
19348;DHT22;9810;52.480;9.806;2024-02-21T14:26:53;11.30;99.90
19348;DHT22;9810;52.480;9.806;2024-02-21T14:29:20;11.30;99.90
19348;DHT22;9810;52.480;9.806;2024-02-21T14:31:49;11.20;99.90
19348;DHT22;9810;52.480;9.806;2024-02-21T14:34:16;11.10;99.90
19348;DHT22;9810;52.480;9.806;2024-02-21T14:36:43;11.10;99.90
19348;DHT22;9810;52.480;9.806;2024-02-21T14:39:10;11.10;99.90
19348;DHT22;9810;52.480;9.806;2024-02-21T14:41:37;11.00;99.90
19348;DHT22;9810;52.480;9.806;2024-02-21T14:44:05;11.00;99.90
19348;DHT22;9810;52.480;9.806;2024-02-21T14:46:33;11.10;99.90
19348;DHT22;9810;52.480;9.806;2024-02-21T14:49:02;11.10;99.90
19348;DHT22;9810;52.480;9.806;2024-02-21T14:51:28;11.00;99.90
19348;DHT22;9810;52.480;9.806;2024-02-21T14:53:56;10.90;99.90
19348;DHT22;9810;52.480;9.806;2024-02-21T14:56:23;11.00;99.90
19348;DHT22;9810;52.480;9.806;2024-02-21T14:58:51;10.90;99.90
19348;DHT22;9810;52.480;9.806;2024-02-21T15:01:17;10.90;99.90
19348;DHT22;9810;52.480;9.806;2024-02-21T15:03:44;11.00;99.90
19348;DHT22;9810;52.480;9.806;2024-02-21T15:06:13;10.90;99.90
19348;DHT22;9810;52.480;9.806;2024-02-21T15:08:40;10.90;99.90
19348;DHT22;9810;52.480;9.806;2024-02-21T15:11:07;10.90;99.90
19348;DHT22;9810;52.480;9.806;2024-02-21T15:13:34;10.90;99.90
19348;DHT22;9810;52.480;9.806;2024-02-21T15:16:02;10.90;99.90
19348;DHT22;9810;52.480;9.806;2024-02-21T15:18:30;10.80;99.90
19348;DHT22;9810;52.480;9.806;2024-02-21T15:20:58;10.80;99.90
19348;DHT22;9810;52.480;9.806;2024-02-21T15:23:27;10.80;99.90
19348;DHT22;9810;52.480;9.806;2024-02-21T15:25:54;10.70;99.90
19348;DHT22;9810;52.480;9.806;2024-02-21T15:28:21;10.60;99.90
19348;DHT22;9810;52.480;9.806;2024-02-21T15:30:48;10.70;99.90
19348;DHT22;9810;52.480;9.806;2024-02-21T15:33:15;10.70;99.90
19348;DHT22;9810;52.480;9.806;2024-02-21T15:35:42;10.70;99.90
19348;DHT22;9810;52.480;9.806;2024-02-21T15:38:09;10.70;99.90
19348;DHT22;9810;52.480;9.806;2024-02-21T15:40:37;10.70;99.90
19348;DHT22;9810;52.480;9.806;2024-02-21T15:43:04;10.60;99.90
19348;DHT22;9810;52.480;9.806;2024-02-21T15:45:31;10.60;99.90
19348;DHT22;9810;52.480;9.806;2024-02-21T15:47:58;10.60;99.90
19348;DHT22;9810;52.480;9.806;2024-02-21T15:50:25;10.50;99.90
19348;DHT22;9810;52.480;9.806;2024-02-21T15:52:53;10.50;99.90
19348;DHT22;9810;52.480;9.806;2024-02-21T15:55:21;10.60;99.90
19348;DHT22;9810;52.480;9.806;2024-02-21T15:57:49;10.50;99.90
19348;DHT22;9810;52.480;9.806;2024-02-21T16:00:17;10.60;99.90